createdAt,value
2017-10-11T00:00:17.156Z,2.6
2017-10-11T00:02:17.062Z,2.9
2017-10-11T00:04:17.012Z,2.6
2017-10-11T00:06:17.908Z,2.4
2017-10-11T00:08:16.867Z,2.5
2017-10-11T00:10:17.783Z,2.5
2017-10-11T00:12:16.722Z,2.9
2017-10-11T00:14:17.634Z,2.6
2017-10-11T00:16:17.562Z,2.1
2017-10-11T00:18:17.500Z,2.7
2017-10-11T00:20:17.410Z,1.9
2017-10-11T00:22:17.331Z,2.3
2017-10-11T00:24:17.258Z,1.9
2017-10-11T00:26:17.165Z,2.2
2017-10-11T00:28:17.117Z,2.3
2017-10-11T00:30:17.065Z,2.2
2017-10-11T00:32:16.966Z,2.2
2017-10-11T00:34:16.896Z,2.2
2017-10-11T00:36:16.829Z,2.3
2017-10-11T00:38:16.758Z,1.6
2017-10-11T00:40:17.700Z,2.3
2017-10-11T00:42:17.657Z,2.1
2017-10-11T00:44:17.598Z,2.7
2017-10-11T00:46:17.524Z,2.1
2017-10-11T00:48:17.456Z,1.8
2017-10-11T00:50:17.391Z,2.2
2017-10-11T00:52:17.330Z,2
2017-10-11T00:54:17.244Z,2.3
2017-10-11T00:56:17.184Z,2.1
2017-10-11T00:58:17.113Z,2.1
2017-10-11T01:00:17.055Z,2.1
2017-10-11T01:02:17.002Z,2.8
2017-10-11T01:04:16.924Z,2
2017-10-11T01:06:16.851Z,2.2
2017-10-11T01:08:16.789Z,2.8
2017-10-11T01:10:17.716Z,2
2017-10-11T01:12:16.633Z,2.2
2017-10-11T01:14:17.576Z,2.4
2017-10-11T01:16:17.503Z,2.6
2017-10-11T01:18:18.410Z,2.1
2017-10-11T01:20:17.328Z,2.5
2017-10-11T01:22:17.258Z,2.6
2017-10-11T01:24:17.160Z,2.4
2017-10-11T01:26:17.106Z,2.8
2017-10-11T01:28:17.040Z,2.8
2017-10-11T01:30:16.969Z,2.9
2017-10-11T01:32:16.910Z,2.8
2017-10-11T01:34:16.841Z,3
2017-10-11T01:36:17.768Z,2.7
2017-10-11T01:38:16.703Z,3.1
2017-10-11T01:40:17.632Z,2.7
2017-10-11T01:42:17.554Z,3.2
2017-10-11T01:44:17.489Z,3.1
2017-10-11T01:46:17.423Z,3.3
2017-10-11T01:48:17.367Z,3.3
2017-10-11T01:50:18.307Z,4
2017-10-11T01:52:17.237Z,3.7
2017-10-11T01:54:17.171Z,4
2017-10-11T01:56:18.115Z,3.5
2017-10-11T01:58:17.057Z,4
2017-10-11T02:00:17.010Z,3.8
2017-10-11T02:02:16.942Z,3.7
2017-10-11T02:04:16.854Z,3.7
2017-10-11T02:06:17.827Z,4.7
2017-10-11T02:08:16.745Z,4.3
2017-10-11T02:10:17.681Z,4.1
2017-10-11T02:12:17.618Z,4.5
2017-10-11T02:14:17.566Z,4.8
2017-10-11T02:16:17.473Z,4.5
2017-10-11T02:18:17.432Z,4.7
2017-10-11T02:20:17.363Z,5.4
2017-10-11T02:22:17.302Z,5.7
2017-10-11T02:24:17.237Z,5.6
2017-10-11T02:26:17.182Z,5.5
2017-10-11T02:28:17.124Z,5.7
2017-10-11T02:30:17.088Z,5.7
2017-10-11T02:32:17.032Z,5.5
2017-10-11T02:34:16.951Z,5.3
2017-10-11T02:36:16.915Z,6.1
2017-10-11T02:38:16.830Z,5.5
2017-10-11T02:40:17.784Z,5.7
2017-10-11T02:44:17.680Z,5.7
2017-10-11T02:46:17.596Z,5.4
2017-10-11T02:48:17.537Z,5.8
2017-10-11T02:50:17.488Z,5.6
2017-10-11T02:52:17.409Z,5.4
2017-10-11T02:54:17.336Z,5.2
2017-10-11T02:56:17.293Z,5.1
2017-10-11T02:58:17.221Z,4.9
2017-10-11T03:00:17.146Z,5.3
2017-10-11T03:02:17.087Z,4.6
2017-10-11T03:04:17.318Z,5.2
2017-10-11T03:06:16.973Z,5.2
2017-10-11T03:08:16.872Z,4.1
2017-10-11T03:10:17.816Z,4.6
2017-10-11T03:12:16.737Z,4.2
2017-10-11T03:14:16.680Z,4.6
2017-10-11T03:16:17.621Z,3.9
2017-10-11T03:18:17.571Z,4
2017-10-11T03:20:18.510Z,3.5
2017-10-11T03:22:17.424Z,4.2
2017-10-11T03:24:17.381Z,4.5
2017-10-11T03:26:18.307Z,4.3
2017-10-11T03:28:17.273Z,4.1
2017-10-11T03:30:17.203Z,3.7
2017-10-11T03:32:17.122Z,4.4
2017-10-11T03:34:17.086Z,4.1
2017-10-11T03:36:18.042Z,4.2
2017-10-11T03:38:16.975Z,4.2
2017-10-11T03:40:17.922Z,4.1
2017-10-11T03:42:16.866Z,4.1
2017-10-11T03:44:16.788Z,3.8
2017-10-11T03:46:17.750Z,4
2017-10-11T03:48:16.668Z,3.8
2017-10-11T03:50:17.628Z,4.1
2017-10-11T03:52:17.572Z,4.1
2017-10-11T03:54:17.493Z,4
2017-10-11T03:56:17.445Z,4.1
2017-10-11T03:58:17.393Z,4.2
2017-10-11T04:00:17.330Z,4
2017-10-11T04:02:17.290Z,4
2017-10-11T04:04:17.253Z,4.3
2017-10-11T04:06:17.220Z,3.9
2017-10-11T04:08:17.188Z,4.2
2017-10-11T04:10:18.144Z,4
2017-10-11T04:12:17.099Z,3.9
2017-10-11T04:14:17.044Z,3.8
2017-10-11T04:16:18.021Z,4.7
2017-10-11T04:18:16.959Z,4.5
2017-10-11T04:20:16.907Z,5.5
2017-10-11T04:22:16.864Z,4.7
2017-10-11T04:24:16.813Z,4.3
2017-10-11T04:26:17.760Z,3.9
2017-10-11T04:28:16.711Z,4.4
2017-10-11T04:30:16.659Z,4
2017-10-11T04:32:17.609Z,4.1
2017-10-11T04:36:17.497Z,4.2
2017-10-11T04:38:17.444Z,4.1
2017-10-11T04:40:17.366Z,3.4
2017-10-11T04:42:17.316Z,4.3
2017-10-11T04:44:17.252Z,4.1
2017-10-11T04:46:17.185Z,4.1
2017-10-11T04:48:17.123Z,4
2017-10-11T04:50:17.061Z,3.8
2017-10-11T04:52:16.972Z,3.4
2017-10-11T04:54:16.931Z,4.6
2017-10-11T04:56:17.860Z,4.2
2017-10-11T04:58:16.815Z,4.2
2017-10-11T05:00:16.747Z,3.7
2017-10-11T05:02:16.718Z,3.9
2017-10-11T05:04:16.642Z,3.5
2017-10-11T05:06:17.590Z,3.5
2017-10-11T05:08:17.545Z,4.2
2017-10-11T05:10:17.482Z,4
2017-10-11T05:12:17.392Z,3.4
2017-10-11T05:14:17.342Z,3.9
2017-10-11T05:16:18.292Z,3.7
2017-10-11T05:18:17.214Z,3.2
2017-10-11T05:20:17.159Z,3.6
2017-10-11T05:22:17.065Z,3.9
2017-10-11T05:24:17.010Z,4.3
2017-10-11T05:26:17.950Z,3.3
2017-10-11T05:28:16.890Z,4.1
2017-10-11T05:30:16.837Z,3.8
2017-10-11T05:32:16.768Z,3.6
2017-10-11T05:34:16.732Z,4.1
2017-10-11T05:36:17.636Z,3.9
2017-10-11T05:38:17.594Z,3.7
2017-10-11T05:40:17.549Z,3.8
2017-10-11T05:42:17.479Z,3.4
2017-10-11T05:44:17.416Z,3.6
2017-10-11T05:46:17.356Z,3.8
2017-10-11T05:48:17.299Z,3.5
2017-10-11T05:50:17.251Z,3.7
2017-10-11T05:52:17.171Z,3.6
2017-10-11T05:54:17.128Z,3.6
2017-10-11T05:56:18.078Z,3.4
2017-10-11T05:58:17.012Z,3.8
2017-10-11T06:00:16.957Z,3
2017-10-11T06:02:16.867Z,3.3
2017-10-11T06:04:16.844Z,2.5
2017-10-11T06:06:17.765Z,3.2
2017-10-11T06:08:16.692Z,3.3
2017-10-11T06:10:17.653Z,3.2
2017-10-11T06:12:17.569Z,3
2017-10-11T06:14:17.473Z,3
2017-10-11T06:16:17.426Z,3.1
2017-10-11T06:18:17.351Z,2.3
2017-10-11T06:20:17.271Z,2.8
2017-10-11T06:22:17.208Z,2.8
2017-10-11T06:24:17.126Z,2.9
2017-10-11T06:26:17.109Z,2.5
2017-10-11T06:28:17.022Z,2.9
2017-10-11T06:30:16.961Z,2.4
2017-10-11T06:32:16.890Z,2.2
2017-10-11T06:34:16.837Z,2.3
2017-10-11T06:36:17.774Z,2.5
2017-10-11T06:38:16.728Z,2.7
2017-10-11T06:40:17.671Z,2
2017-10-11T06:42:17.628Z,2.4
2017-10-11T06:44:17.553Z,2.4
2017-10-11T06:46:17.520Z,2.2
2017-10-11T06:48:17.450Z,2.5
2017-10-11T06:50:17.401Z,2.3
2017-10-11T06:52:17.340Z,2
2017-10-11T06:54:17.291Z,2.5
2017-10-11T06:56:18.227Z,1.8
2017-10-11T06:58:17.172Z,1.9
2017-10-11T07:00:17.130Z,2.6
2017-10-11T07:02:17.053Z,2.2
2017-10-11T07:04:16.998Z,2.1
2017-10-11T07:06:17.915Z,2
2017-10-11T07:08:16.866Z,2.1
2017-10-11T07:10:17.809Z,2
2017-10-11T07:12:16.741Z,1.6
2017-10-11T07:14:16.689Z,1.7
2017-10-11T07:16:17.642Z,2.4
2017-10-11T07:18:16.572Z,2
2017-10-11T07:20:17.541Z,1.4
2017-10-11T07:22:17.477Z,1.8
2017-10-11T07:24:17.425Z,1.5
2017-10-11T07:26:17.364Z,1.9
2017-10-11T07:28:17.324Z,1.6
2017-10-11T07:30:17.261Z,1.7
2017-10-11T07:32:17.217Z,1.9
2017-10-11T07:34:17.147Z,1.3
2017-10-11T07:36:17.099Z,1.7
2017-10-11T07:38:17.033Z,1.5
2017-10-11T07:40:17.972Z,1.5
2017-10-11T07:42:16.918Z,1.7
2017-10-11T07:44:16.865Z,1.6
2017-10-11T07:46:17.819Z,1.1
2017-10-11T07:48:16.749Z,1.2
2017-10-11T07:50:16.737Z,1.1
2017-10-11T07:52:16.642Z,1.4
2017-10-11T07:54:17.599Z,1.4
2017-10-11T07:56:17.550Z,1
2017-10-11T07:58:17.492Z,1.3
2017-10-11T08:00:17.460Z,1.5
2017-10-11T08:02:17.426Z,1
2017-10-11T08:04:17.346Z,1.2
2017-10-11T08:06:17.291Z,1.2
2017-10-11T08:08:17.268Z,1.4
2017-10-11T08:10:17.195Z,1.5
2017-10-11T08:12:17.158Z,1.4
2017-10-11T08:14:17.098Z,1.1
2017-10-11T08:16:18.071Z,1.3
2017-10-11T08:18:17.012Z,1.2
2017-10-11T08:20:16.970Z,1.3
2017-10-11T08:22:16.911Z,1.2
2017-10-11T08:24:16.878Z,1.4
2017-10-11T08:26:16.870Z,1.7
2017-10-11T08:28:16.788Z,2
2017-10-11T08:30:16.745Z,1.3
2017-10-11T08:32:16.736Z,1.3
2017-10-11T08:34:16.644Z,1.3
2017-10-11T08:36:17.604Z,1.3
2017-10-11T08:38:17.535Z,1
2017-10-11T08:40:17.484Z,1.1
2017-10-11T08:42:17.414Z,1.2
2017-10-11T08:44:17.372Z,1.3
2017-10-11T08:46:18.330Z,1.2
2017-10-11T08:48:17.286Z,1.5
2017-10-11T08:50:17.229Z,1.1
2017-10-11T08:52:17.179Z,1.2
2017-10-11T08:54:17.125Z,1.2
2017-10-11T08:56:17.057Z,1.7
2017-10-11T08:58:17.029Z,1.3
2017-10-11T09:00:16.972Z,1.2
2017-10-11T09:02:16.941Z,1.2
2017-10-11T09:04:16.918Z,1.7
2017-10-11T09:06:17.909Z,1.2
2017-10-11T09:08:16.884Z,1.4
2017-10-11T09:10:17.858Z,1.3
2017-10-11T09:12:16.831Z,1
2017-10-11T09:14:16.797Z,1.1
2017-10-11T09:16:17.778Z,1.3
2017-10-11T09:18:16.749Z,1.8
2017-10-11T09:20:20.709Z,1
2017-10-11T09:22:17.708Z,1.2
2017-10-11T09:24:17.662Z,1.7
2017-10-11T09:26:17.657Z,1.4
2017-10-11T09:28:17.638Z,1.3
2017-10-11T09:30:17.608Z,1.3
2017-10-11T09:32:17.570Z,1
2017-10-11T09:34:17.546Z,1.1
2017-10-11T09:36:17.528Z,1.3
2017-10-11T09:38:17.499Z,1.5
2017-10-11T09:40:17.479Z,1.4
2017-10-11T09:42:17.448Z,1.4
2017-10-11T09:44:17.440Z,1.4
2017-10-11T09:46:17.386Z,1.3
2017-10-11T09:48:17.383Z,1.1
2017-10-11T09:50:17.364Z,0.9
2017-10-11T09:52:17.349Z,1.1
2017-10-11T09:54:17.350Z,1.2
2017-10-11T09:56:17.314Z,1.1
2017-10-11T09:58:17.302Z,1.2
2017-10-11T10:00:17.320Z,1
2017-10-11T10:02:17.303Z,1
2017-10-11T10:04:17.274Z,1
2017-10-11T10:06:17.253Z,1.2
2017-10-11T10:08:17.245Z,1.1
2017-10-11T10:10:17.216Z,1.2
2017-10-11T10:12:17.189Z,1
2017-10-11T10:14:17.167Z,1.4
2017-10-11T10:16:17.142Z,1.5
2017-10-11T10:18:17.121Z,1.3
2017-10-11T10:20:17.103Z,1.2
2017-10-11T10:22:17.062Z,1.3
2017-10-11T10:24:17.060Z,1.5
2017-10-11T10:26:17.019Z,1.5
2017-10-11T10:28:16.997Z,1.2
2017-10-11T10:30:16.959Z,1.3
2017-10-11T10:32:16.958Z,1.5
2017-10-11T10:34:16.917Z,1.2
2017-10-11T10:36:16.889Z,1.4
2017-10-11T10:38:16.861Z,1.5
2017-10-11T10:40:17.804Z,1
2017-10-11T10:42:16.784Z,1.3
2017-10-11T10:44:16.770Z,1
2017-10-11T10:46:17.738Z,1.2
2017-10-11T10:48:16.723Z,1.1
2017-10-11T10:50:16.708Z,1.3
2017-10-11T10:52:17.685Z,1.6
2017-10-11T10:54:17.676Z,1.1
2017-10-11T10:56:17.645Z,1.6
2017-10-11T10:58:17.647Z,1.8
2017-10-11T11:00:17.612Z,1.5
2017-10-11T11:02:17.581Z,1.7
2017-10-11T11:04:17.562Z,1.5
2017-10-11T11:06:17.546Z,1.4
2017-10-11T11:08:17.517Z,1.8
2017-10-11T11:10:17.506Z,1.7
2017-10-11T11:12:17.476Z,1.7
2017-10-11T11:14:17.447Z,1.7
2017-10-11T11:16:17.400Z,1.5
2017-10-11T11:18:17.357Z,1.8
2017-10-11T11:20:17.337Z,1.7
2017-10-11T11:22:17.304Z,2
2017-10-11T11:24:17.303Z,1.8
2017-10-11T11:26:17.289Z,1.6
2017-10-11T11:28:17.266Z,1.3
2017-10-11T11:30:17.260Z,1.8
2017-10-11T11:32:17.222Z,1.5
2017-10-11T11:34:17.213Z,1.5
2017-10-11T11:36:17.219Z,1.6
2017-10-11T11:38:17.184Z,1.7
2017-10-11T11:40:17.174Z,1.5
2017-10-11T11:42:17.177Z,1.9
2017-10-11T11:44:17.171Z,1.3
2017-10-11T11:46:18.143Z,1.8
2017-10-11T11:48:17.139Z,2.1
2017-10-11T11:50:17.141Z,1.4
2017-10-11T11:52:17.129Z,1.4
2017-10-11T11:54:17.110Z,1.8
2017-10-11T11:56:18.094Z,1.8
2017-10-11T11:58:17.087Z,1.6
2017-10-11T12:00:17.077Z,1.3
2017-10-11T12:02:17.042Z,1.6
2017-10-11T12:04:17.042Z,1.4
2017-10-11T12:06:18.026Z,1.4
2017-10-11T12:08:17.017Z,1.6
2017-10-11T12:10:18.017Z,1.7
2017-10-11T12:12:17.010Z,1.3
2017-10-11T12:14:16.980Z,1.4
2017-10-11T12:16:16.986Z,1.6
2017-10-11T12:18:16.946Z,1.8
2017-10-11T12:20:16.933Z,1.5
2017-10-11T12:22:16.930Z,1.6
2017-10-11T12:24:16.908Z,1.5
2017-10-11T12:26:17.900Z,1.3
2017-10-11T12:28:16.865Z,1.3
2017-10-11T12:30:16.859Z,1.2
2017-10-11T12:32:16.859Z,1.3
2017-10-11T12:34:16.835Z,1.4
2017-10-11T12:36:17.824Z,1.1
2017-10-11T12:38:16.804Z,1.1
2017-10-11T12:40:17.784Z,1.1
2017-10-11T12:42:16.773Z,1.1
2017-10-11T12:44:16.789Z,1.5
2017-10-11T12:46:16.791Z,1.2
2017-10-11T12:48:16.796Z,1.2
2017-10-11T12:50:16.798Z,1.2
2017-10-11T12:52:16.797Z,1.1
2017-10-11T12:54:16.800Z,1.1
2017-10-11T12:56:17.811Z,1.1
2017-10-11T12:58:16.807Z,1.1
2017-10-11T13:00:16.807Z,1.1
2017-10-11T13:02:16.804Z,1.2
2017-10-11T13:04:16.851Z,1.1
2017-10-11T13:06:17.817Z,1.1
2017-10-11T13:08:16.814Z,1.3
2017-10-11T13:10:17.827Z,1.3
2017-10-11T13:12:16.822Z,1.1
2017-10-11T13:14:16.832Z,1.1
2017-10-11T13:16:16.834Z,1.5
2017-10-11T13:18:16.803Z,1.1
2017-10-11T13:20:16.807Z,1.3
2017-10-11T13:22:16.825Z,1
2017-10-11T13:24:16.802Z,1
2017-10-11T13:26:17.814Z,1.3
2017-10-11T13:28:16.822Z,1.1
2017-10-11T13:30:16.804Z,1.4
2017-10-11T13:32:16.837Z,1.1
2017-10-11T13:34:16.824Z,1.1
2017-10-11T13:36:16.829Z,1.4
2017-10-11T13:38:16.847Z,1.1
2017-10-11T13:40:17.818Z,1.5
2017-10-11T13:42:16.825Z,1
2017-10-11T13:44:16.827Z,1.3
2017-10-11T13:46:17.831Z,1.3
2017-10-11T13:48:16.846Z,1.2
2017-10-11T13:50:16.843Z,1.1
2017-10-11T13:52:16.868Z,1.2
2017-10-11T13:54:16.868Z,1.3
2017-10-11T13:56:17.844Z,1.7
2017-10-11T13:58:16.864Z,1.4
2017-10-11T14:00:16.855Z,1.3
2017-10-11T14:02:16.855Z,1.4
2017-10-11T14:04:16.860Z,1.2
2017-10-11T14:06:17.828Z,1.4
2017-10-11T14:08:16.849Z,1.1
2017-10-11T14:10:17.817Z,1.2
2017-10-11T14:12:16.804Z,1.2
2017-10-11T14:14:16.817Z,1.1
2017-10-11T14:16:17.804Z,1.2
2017-10-11T14:18:16.820Z,1.5
2017-10-11T14:20:16.811Z,1.3
2017-10-11T14:22:16.789Z,1
2017-10-11T14:24:16.818Z,1.1
2017-10-11T14:26:17.805Z,1.5
2017-10-11T14:28:16.790Z,1.1
2017-10-11T14:30:16.786Z,1.5
2017-10-11T14:32:16.781Z,1.3
2017-10-11T14:34:16.792Z,1
2017-10-11T14:36:17.800Z,1.1
2017-10-11T14:38:16.790Z,1.2
2017-10-11T14:40:17.792Z,1.3
2017-10-11T14:42:16.771Z,1.4
2017-10-11T14:44:16.785Z,1.4
2017-10-11T14:46:17.771Z,1.2
2017-10-11T14:48:16.799Z,1
2017-10-11T14:50:16.804Z,1.4
2017-10-11T14:52:16.794Z,1.1
2017-10-11T14:54:16.772Z,1.1
2017-10-11T14:56:17.796Z,1
2017-10-11T14:58:16.782Z,0.8
2017-10-11T15:00:16.799Z,1
2017-10-11T15:02:16.786Z,1
2017-10-11T15:04:16.787Z,1.2
2017-10-11T15:06:17.803Z,1
2017-10-11T15:08:16.835Z,1.1
2017-10-11T15:10:17.845Z,0.9
2017-10-11T15:12:16.869Z,0.9
2017-10-11T15:14:16.864Z,1.3
2017-10-11T15:16:16.867Z,0.9
2017-10-11T15:18:16.882Z,0.8
2017-10-11T15:20:16.889Z,1.1
2017-10-11T15:22:16.930Z,0.8
2017-10-11T15:24:16.895Z,0.8
2017-10-11T15:26:17.938Z,0.9
2017-10-11T15:28:16.959Z,1.4
2017-10-11T15:30:16.945Z,1
2017-10-11T15:32:16.938Z,1
2017-10-11T15:34:16.966Z,0.8
2017-10-11T15:36:17.943Z,0.6
2017-10-11T15:38:16.958Z,0.7
2017-10-11T15:40:17.948Z,0.8
2017-10-11T15:42:16.926Z,0.6
2017-10-11T15:44:16.927Z,0.8
2017-10-11T15:46:16.913Z,0.7
2017-10-11T15:48:16.913Z,0.7
2017-10-11T15:50:16.931Z,0.7
2017-10-11T15:52:16.939Z,0.9
2017-10-11T15:54:16.940Z,0.7
2017-10-11T15:56:17.948Z,0.8
2017-10-11T15:58:16.948Z,0.9
2017-10-11T16:00:16.936Z,1
2017-10-11T16:02:16.962Z,1
2017-10-11T16:04:16.959Z,0.8
2017-10-11T16:06:16.959Z,0.9
2017-10-11T16:08:16.957Z,0.7
2017-10-11T16:10:17.959Z,0.9
2017-10-11T16:12:16.946Z,0.9
2017-10-11T16:14:16.951Z,1
2017-10-11T16:16:16.939Z,0.8
2017-10-11T16:18:16.919Z,1.2
2017-10-11T16:20:16.895Z,0.7
2017-10-11T16:22:16.903Z,1
2017-10-11T16:24:16.886Z,0.8
2017-10-11T16:26:17.863Z,1
2017-10-11T16:28:16.858Z,0.7
2017-10-11T16:30:16.881Z,0.8
2017-10-11T16:32:16.870Z,0.8
2017-10-11T16:34:16.860Z,0.8
2017-10-11T16:36:17.870Z,0.7
2017-10-11T16:38:16.866Z,0.7
2017-10-11T16:40:17.855Z,1.1
2017-10-11T16:42:16.869Z,0.8
2017-10-11T16:44:16.859Z,0.7
2017-10-11T16:46:16.893Z,0.8
2017-10-11T16:48:16.868Z,0.8
2017-10-11T16:50:16.882Z,1
2017-10-11T16:52:16.859Z,1
2017-10-11T16:54:16.855Z,0.8
2017-10-11T16:56:17.830Z,0.9
2017-10-11T16:58:16.827Z,0.8
2017-10-11T17:00:16.801Z,1.2
2017-10-11T17:02:16.800Z,0.7
2017-10-11T17:04:16.771Z,0.8
2017-10-11T17:06:17.756Z,0.9
2017-10-11T17:08:16.728Z,1.1
2017-10-11T17:10:17.729Z,1
2017-10-11T17:12:16.720Z,1
2017-10-11T17:14:16.679Z,0.9
2017-10-11T17:16:17.669Z,1
2017-10-11T17:18:16.697Z,0.9
2017-10-11T17:20:17.631Z,1.1
2017-10-11T17:22:17.634Z,1.3
2017-10-11T17:24:17.601Z,1.1
2017-10-11T17:26:17.570Z,0.8
2017-10-11T17:28:17.535Z,1
2017-10-11T17:30:17.500Z,1.2
2017-10-11T17:32:17.498Z,1
2017-10-11T17:34:17.492Z,1.1
2017-10-11T17:36:17.469Z,1.1
2017-10-11T17:38:17.468Z,1
2017-10-11T17:40:17.444Z,1.2
2017-10-11T17:42:17.444Z,1.3
2017-10-11T17:44:17.437Z,1.2
2017-10-11T17:46:17.436Z,1.4
2017-10-11T17:48:17.412Z,1.4
2017-10-11T17:50:17.402Z,0.9
2017-10-11T17:52:17.409Z,1.2
2017-10-11T17:54:17.388Z,1.1
2017-10-11T17:56:17.354Z,1.5
2017-10-11T17:58:17.345Z,1.1
2017-10-11T18:00:17.350Z,1.2
2017-10-11T18:02:17.326Z,1.2
2017-10-11T18:04:17.341Z,1.2
2017-10-11T18:06:17.334Z,1
2017-10-11T18:08:17.299Z,1.4
2017-10-11T18:10:17.287Z,0.9
2017-10-11T18:12:17.259Z,0.9
2017-10-11T18:14:17.230Z,1.2
2017-10-11T18:16:17.231Z,1
2017-10-11T18:18:17.190Z,1
2017-10-11T18:20:17.204Z,1.3
2017-10-11T18:22:17.177Z,1.2
2017-10-11T18:24:17.163Z,0.9
2017-10-11T18:26:17.147Z,1.2
2017-10-11T18:28:17.145Z,1.1
2017-10-11T18:30:17.148Z,1.4
2017-10-11T18:32:17.154Z,1.1
2017-10-11T18:34:17.155Z,1.3
2017-10-11T18:36:17.172Z,1.6
2017-10-11T18:38:17.169Z,1.2
2017-10-11T18:40:18.167Z,1.1
2017-10-11T18:42:17.151Z,1.2
2017-10-11T18:44:17.159Z,1.2
2017-10-11T18:46:17.154Z,1.3
2017-10-11T18:48:17.141Z,1.1
2017-10-11T18:50:18.118Z,1.2
2017-10-11T18:52:17.109Z,1.2
2017-10-11T18:54:17.100Z,1.3
2017-10-11T18:56:18.057Z,1.2
2017-10-11T18:58:17.056Z,1.4
2017-10-11T19:00:17.055Z,1.6
2017-10-11T19:02:17.033Z,2.6
2017-10-11T19:04:17.035Z,1.1
2017-10-11T19:06:17.029Z,1.3
2017-10-11T19:08:17.019Z,1.2
2017-10-11T19:10:17.997Z,1.2
2017-10-11T19:12:16.996Z,1.4
2017-10-11T19:14:16.989Z,1
2017-10-11T19:16:16.971Z,1.3
2017-10-11T19:18:16.946Z,1.1
2017-10-11T19:20:16.955Z,1.7
2017-10-11T19:22:16.923Z,1.5
2017-10-11T19:24:16.910Z,1.6
2017-10-11T19:26:17.885Z,1.3
2017-10-11T19:28:16.870Z,1.6
2017-10-11T19:30:16.862Z,1.8
2017-10-11T19:32:16.850Z,1.5
2017-10-11T19:34:16.828Z,1.4
2017-10-11T19:36:17.778Z,1.8
2017-10-11T19:38:16.745Z,1.9
2017-10-11T19:40:17.697Z,1.7
2017-10-11T19:42:17.680Z,1.7
2017-10-11T19:44:17.652Z,1.6
2017-10-11T19:46:17.605Z,1.6
2017-10-11T19:48:17.569Z,1.5
2017-10-11T19:50:17.545Z,1.4
2017-10-11T19:52:17.512Z,1.8
2017-10-11T19:54:17.495Z,1.6
2017-10-11T19:56:17.464Z,1.3
2017-10-11T19:58:17.462Z,1.5
2017-10-11T20:00:17.437Z,1.3
2017-10-11T20:02:17.432Z,1.6
2017-10-11T20:04:17.410Z,1.7
2017-10-11T20:06:17.377Z,1.6
2017-10-11T20:08:17.367Z,1.4
2017-10-11T20:10:17.366Z,1.3
2017-10-11T20:12:17.336Z,1.8
2017-10-11T20:14:17.295Z,1.4
2017-10-11T20:16:17.276Z,1.4
2017-10-11T20:18:17.243Z,1.3
2017-10-11T20:20:17.202Z,1.2
2017-10-11T20:22:17.190Z,1.6
2017-10-11T20:24:17.165Z,1.3
2017-10-11T20:26:17.148Z,1.3
2017-10-11T20:28:17.124Z,1.5
2017-10-11T20:30:17.091Z,1.6
2017-10-11T20:32:17.033Z,1.6
2017-10-11T20:34:16.986Z,1.4
2017-10-11T20:36:16.956Z,1.2
2017-10-11T20:38:16.917Z,1.4
2017-10-11T20:40:17.905Z,1.2
2017-10-11T20:42:16.880Z,1.3
2017-10-11T20:44:16.892Z,2
2017-10-11T20:46:16.846Z,1.5
2017-10-11T20:48:16.831Z,1.5
2017-10-11T20:50:16.808Z,1.4
2017-10-11T20:52:16.768Z,1.3
2017-10-11T20:54:16.768Z,1.4
2017-10-11T20:56:17.733Z,1.4
2017-10-11T20:58:16.716Z,1.4
2017-10-11T21:00:17.679Z,1.3
2017-10-11T21:02:17.640Z,1.4
2017-10-11T21:04:17.602Z,1.2
2017-10-11T21:06:17.571Z,1.2
2017-10-11T21:08:17.543Z,1.3
2017-10-11T21:10:17.520Z,1.4
2017-10-11T21:12:17.484Z,1.3
2017-10-11T21:14:17.439Z,1.1
2017-10-11T21:16:17.431Z,1.1
2017-10-11T21:18:17.395Z,1.2
2017-10-11T21:20:17.337Z,1.3
2017-10-11T21:22:17.312Z,0.8
2017-10-11T21:24:17.268Z,1
2017-10-11T21:26:18.227Z,1
2017-10-11T21:28:17.192Z,1.3
2017-10-11T21:30:17.159Z,1.2
2017-10-11T21:32:17.129Z,0.9
2017-10-11T21:34:17.108Z,0.9
2017-10-11T21:36:18.063Z,1
2017-10-11T21:38:17.039Z,1.1
2017-10-11T21:40:18.022Z,1
2017-10-11T21:42:16.969Z,0.9
2017-10-11T21:44:16.927Z,0.9
2017-10-11T21:46:16.938Z,0.8
2017-10-11T21:48:16.871Z,0.7
2017-10-11T21:50:16.835Z,0.8
2017-10-11T21:52:16.796Z,0.8
2017-10-11T21:54:16.761Z,0.8
2017-10-11T21:56:17.721Z,0.9
2017-10-11T21:58:17.680Z,0.8
2017-10-11T22:00:17.616Z,0.8
2017-10-11T22:02:17.596Z,0.8
2017-10-11T22:04:17.521Z,0.6
2017-10-11T22:06:17.463Z,0.8
2017-10-11T22:08:17.420Z,0.7
2017-10-11T22:10:17.348Z,0.9
2017-10-11T22:12:17.300Z,0.7
2017-10-11T22:14:17.254Z,0.7
2017-10-11T22:16:17.200Z,1
2017-10-11T22:18:17.126Z,0.7
2017-10-11T22:20:17.087Z,0.7
2017-10-11T22:22:17.037Z,0.8
2017-10-11T22:24:16.991Z,1.1
2017-10-11T22:26:16.941Z,0.9
2017-10-11T22:28:16.892Z,0.9
2017-10-11T22:30:16.864Z,0.9
2017-10-11T22:32:16.829Z,0.7
2017-10-11T22:34:16.775Z,0.8
2017-10-11T22:36:17.742Z,1
2017-10-11T22:38:16.703Z,0.6
2017-10-11T22:40:17.674Z,0.6
2017-10-11T22:42:17.649Z,0.9
2017-10-11T22:44:17.612Z,1
2017-10-11T22:46:17.583Z,0.7
2017-10-11T22:48:17.574Z,0.7
2017-10-11T22:50:17.544Z,0.8
2017-10-11T22:52:17.499Z,0.8
2017-10-11T22:54:17.482Z,0.8
2017-10-11T22:56:17.470Z,0.9
2017-10-11T22:58:17.406Z,0.7
2017-10-11T23:00:17.378Z,0.8
2017-10-11T23:02:17.385Z,0.7
2017-10-11T23:04:17.316Z,1
2017-10-11T23:06:17.296Z,0.7
2017-10-11T23:08:17.279Z,0.9
2017-10-11T23:10:17.252Z,1
2017-10-11T23:12:17.209Z,0.8
2017-10-11T23:14:17.171Z,0.8
2017-10-11T23:16:18.136Z,1
2017-10-11T23:18:17.105Z,1
2017-10-11T23:20:17.093Z,1
2017-10-11T23:22:17.058Z,0.9
2017-10-11T23:24:17.027Z,1.1
2017-10-11T23:26:17.993Z,1.1
2017-10-11T23:28:16.947Z,0.7
2017-10-11T23:30:16.918Z,0.9
2017-10-11T23:32:16.897Z,1
2017-10-11T23:34:16.850Z,0.8
2017-10-11T23:36:17.830Z,1.1
2017-10-11T23:38:16.809Z,0.9
2017-10-11T23:40:17.743Z,1
2017-10-11T23:42:16.735Z,0.9
2017-10-11T23:44:16.713Z,0.9
2017-10-11T23:46:17.672Z,1.1
2017-10-11T23:48:17.638Z,0.9
2017-10-11T23:50:17.612Z,1.1
2017-10-11T23:52:17.581Z,0.9
2017-10-11T23:54:17.552Z,1
2017-10-11T23:56:17.513Z,0.8
2017-10-11T23:58:17.472Z,1
